createdAt,value
2018-03-15T00:01:22.981Z,14.61
2018-03-15T00:03:51.666Z,14.61
2018-03-15T00:06:20.353Z,14.59
2018-03-15T00:08:48.979Z,14.47
2018-03-15T00:11:18.493Z,14.87
2018-03-15T00:13:47.945Z,14.46
2018-03-15T00:16:16.494Z,14.12
2018-03-15T00:18:45.217Z,14.40
2018-03-15T00:21:13.893Z,14.85
2018-03-15T00:23:42.589Z,15.12
2018-03-15T00:26:11.585Z,14.54
2018-03-15T00:28:40.168Z,14.54
2018-03-15T00:31:08.733Z,14.14
2018-03-15T00:33:37.333Z,14.21
2018-03-15T00:36:05.886Z,14.52
2018-03-15T00:38:34.596Z,14.40
2018-03-15T00:41:03.683Z,14.67
2018-03-15T00:43:32.376Z,14.65
2018-03-15T00:46:01.069Z,14.26
2018-03-15T00:48:29.742Z,14.25
2018-03-15T00:50:58.440Z,14.07
2018-03-15T00:53:27.125Z,13.88
2018-03-15T00:55:55.911Z,14.14
2018-03-15T00:58:24.488Z,14.13
2018-03-15T01:00:53.283Z,13.97
2018-03-15T01:03:21.968Z,14.06
2018-03-15T01:05:50.590Z,14.17
2018-03-15T01:08:20.052Z,14.10
2018-03-15T01:10:49.045Z,14.16
2018-03-15T01:13:17.694Z,13.97
2018-03-15T01:15:46.424Z,14.00
2018-03-15T01:18:15.029Z,14.37
2018-03-15T01:20:44.443Z,14.09
2018-03-15T01:23:13.913Z,14.11
2018-03-15T01:25:42.696Z,14.01
2018-03-15T01:28:11.328Z,13.97
2018-03-15T01:30:39.917Z,13.84
2018-03-15T01:33:09.479Z,13.95
2018-03-15T01:35:38.164Z,14.18
2018-03-15T01:38:06.848Z,14.10
2018-03-15T01:40:35.732Z,13.96
2018-03-15T01:43:04.383Z,14.10
2018-03-15T01:45:33.104Z,13.99
2018-03-15T01:48:02.043Z,13.97
2018-03-15T01:50:31.350Z,13.61
2018-03-15T01:52:59.898Z,13.69
2018-03-15T01:55:28.717Z,13.24
2018-03-15T01:57:58.052Z,13.42
2018-03-15T02:00:26.604Z,13.36
2018-03-15T02:02:56.164Z,13.64
2018-03-15T02:05:24.851Z,13.51
2018-03-15T02:07:53.536Z,13.27
2018-03-15T02:10:22.320Z,13.44
2018-03-15T02:12:51.007Z,13.14
2018-03-15T02:15:19.699Z,13.41
2018-03-15T02:17:48.433Z,13.22
2018-03-15T02:20:17.165Z,13.12
2018-03-15T02:22:45.708Z,13.30
2018-03-15T02:25:14.638Z,13.30
2018-03-15T02:27:43.181Z,12.99
2018-03-15T02:30:11.730Z,12.96
2018-03-15T02:32:40.335Z,12.91
2018-03-15T02:35:09.689Z,12.98
2018-03-15T02:37:39.007Z,12.90
2018-03-15T02:40:09.574Z,12.99
2018-03-15T02:42:38.122Z,13.03
2018-03-15T02:45:06.692Z,13.25
2018-03-15T02:47:35.288Z,13.04
2018-03-15T02:50:03.861Z,12.86
2018-03-15T02:52:32.418Z,12.54
2018-03-15T02:55:01.223Z,12.45
2018-03-15T02:57:29.775Z,12.82
2018-03-15T02:59:58.325Z,13.06
2018-03-15T03:02:27.890Z,12.92
2018-03-15T03:04:56.442Z,12.67
2018-03-15T03:07:24.988Z,12.71
2018-03-15T03:09:53.592Z,12.73
2018-03-15T03:12:22.907Z,12.70
2018-03-15T03:14:51.452Z,12.89
2018-03-15T03:17:20.056Z,12.72
2018-03-15T03:19:49.373Z,12.74
2018-03-15T03:22:17.920Z,12.75
2018-03-15T03:24:47.345Z,12.92
2018-03-15T03:27:16.661Z,13.04
2018-03-15T03:29:45.193Z,13.23
2018-03-15T03:32:13.867Z,12.92
2018-03-15T03:34:42.420Z,13.11
2018-03-15T03:37:10.965Z,13.08
2018-03-15T03:39:40.328Z,13.00
2018-03-15T03:42:08.877Z,13.50
2018-03-15T03:44:37.790Z,13.34
2018-03-15T03:47:06.496Z,13.27
2018-03-15T03:49:35.041Z,13.61
2018-03-15T03:52:03.593Z,13.45
2018-03-15T03:54:32.965Z,13.53
2018-03-15T03:57:01.512Z,13.42
2018-03-15T03:59:30.055Z,13.55
2018-03-15T04:01:59.431Z,13.68
2018-03-15T04:04:27.976Z,13.59
2018-03-15T04:06:56.533Z,13.63
2018-03-15T04:09:26.096Z,13.68
2018-03-15T04:11:54.651Z,13.89
2018-03-15T04:14:23.197Z,14.13
2018-03-15T04:16:52.866Z,13.89
2018-03-15T04:19:21.416Z,13.76
2018-03-15T04:21:50.041Z,13.98
2018-03-15T04:24:18.639Z,14.02
2018-03-15T04:26:47.193Z,13.91
2018-03-15T04:29:15.740Z,14.13
2018-03-15T04:31:45.108Z,14.42
2018-03-15T04:34:13.664Z,14.11
2018-03-15T04:36:42.208Z,14.10
2018-03-15T04:39:10.860Z,14.28
2018-03-15T04:41:39.416Z,14.25
2018-03-15T04:44:07.965Z,14.85
2018-03-15T04:46:36.661Z,14.77
2018-03-15T04:49:05.222Z,15.57
2018-03-15T04:51:34.568Z,15.41
2018-03-15T04:54:03.364Z,16.12
2018-03-15T04:56:31.914Z,15.93
2018-03-15T04:59:00.633Z,14.56
2018-03-15T05:01:29.522Z,14.64
2018-03-15T05:03:58.213Z,15.10
2018-03-15T05:06:26.765Z,15.30
2018-03-15T05:08:55.379Z,15.57
2018-03-15T05:11:24.063Z,16.13
2018-03-15T05:13:52.750Z,14.79
2018-03-15T05:16:21.533Z,15.22
2018-03-15T05:18:50.219Z,15.32
2018-03-15T05:21:18.851Z,15.64
2018-03-15T05:23:48.320Z,15.86
2018-03-15T05:26:17.044Z,16.67
2018-03-15T05:28:46.504Z,17.99
2018-03-15T05:31:15.707Z,19.99
2018-03-15T05:33:45.056Z,20.20
2018-03-15T05:36:13.736Z,19.72
2018-03-15T05:38:42.679Z,20.02
2018-03-15T05:41:11.771Z,18.93
2018-03-15T05:43:40.665Z,18.60
2018-03-15T05:46:09.706Z,19.50
2018-03-15T05:48:39.119Z,22.50
2018-03-15T05:51:07.851Z,23.49
2018-03-15T05:53:36.585Z,23.78
2018-03-15T05:56:06.004Z,23.71
2018-03-15T05:58:34.720Z,23.60
2018-03-15T06:01:03.664Z,23.06
2018-03-15T06:03:33.123Z,21.56
2018-03-15T06:06:01.706Z,20.87
2018-03-15T06:08:30.485Z,22.24
2018-03-15T06:10:59.077Z,23.26
2018-03-15T06:13:27.633Z,21.28
2018-03-15T06:15:56.236Z,20.73
2018-03-15T06:18:25.552Z,20.78
2018-03-15T06:20:54.109Z,20.46
2018-03-15T06:23:23.223Z,19.84
2018-03-15T06:25:51.776Z,20.34
2018-03-15T06:28:20.348Z,19.71
2018-03-15T06:30:48.967Z,20.29
2018-03-15T06:33:17.870Z,20.50
2018-03-15T06:35:46.421Z,20.16
2018-03-15T06:38:15.230Z,19.93
2018-03-15T06:40:43.781Z,20.22
2018-03-15T06:43:12.341Z,19.26
2018-03-15T06:45:41.949Z,18.98
2018-03-15T06:48:11.267Z,19.54
2018-03-15T06:50:39.820Z,19.84
2018-03-15T06:53:09.603Z,20.35
2018-03-15T06:55:38.152Z,20.24
2018-03-15T06:58:06.707Z,19.21
2018-03-15T07:00:35.312Z,19.52
2018-03-15T07:03:03.882Z,18.74
2018-03-15T07:05:32.447Z,19.21
2018-03-15T07:08:01.356Z,19.92
2018-03-15T07:10:29.923Z,19.84
2018-03-15T07:12:58.548Z,19.10
2018-03-15T07:15:27.915Z,19.05
2018-03-15T07:17:56.460Z,19.67
2018-03-15T07:20:25.083Z,19.24
2018-03-15T07:22:54.013Z,20.43
2018-03-15T07:25:22.560Z,20.52
2018-03-15T07:27:51.108Z,19.91
2018-03-15T07:30:20.028Z,19.98
2018-03-15T07:32:48.587Z,20.37
2018-03-15T07:35:17.297Z,20.42
2018-03-15T07:37:45.937Z,20.29
2018-03-15T07:40:14.488Z,21.13
2018-03-15T07:42:43.809Z,21.18
2018-03-15T07:45:12.820Z,20.57
2018-03-15T07:47:41.376Z,20.38
2018-03-15T07:50:10.701Z,19.60
2018-03-15T07:52:39.388Z,19.96
2018-03-15T07:55:07.940Z,20.77
2018-03-15T07:57:37.420Z,20.07
2018-03-15T08:00:06.063Z,20.14
2018-03-15T08:02:34.723Z,20.29
2018-03-15T08:05:04.082Z,21.10
2018-03-15T08:07:33.891Z,20.94
2018-03-15T08:10:02.440Z,20.76
2018-03-15T08:12:31.268Z,21.04
2018-03-15T08:14:59.954Z,21.68
2018-03-15T08:17:28.761Z,21.47
2018-03-15T08:19:57.326Z,21.68
2018-03-15T08:22:26.006Z,21.98
2018-03-15T08:24:54.573Z,21.86
2018-03-15T08:27:23.137Z,21.47
2018-03-15T08:29:51.753Z,21.94
2018-03-15T08:32:21.116Z,22.11
2018-03-15T08:34:49.664Z,21.35
2018-03-15T08:37:18.272Z,22.44
2018-03-15T08:39:47.236Z,22.28
2018-03-15T08:42:15.800Z,21.25
2018-03-15T08:44:44.688Z,22.32
2018-03-15T08:47:13.248Z,22.22
2018-03-15T08:49:41.800Z,22.90
2018-03-15T08:52:11.270Z,22.96
2018-03-15T08:54:39.949Z,23.56
2018-03-15T08:57:08.514Z,23.60
2018-03-15T08:59:37.112Z,23.19
2018-03-15T09:02:06.633Z,23.37
2018-03-15T09:04:35.512Z,23.30
2018-03-15T09:07:03.928Z,23.81
2018-03-15T09:09:33.240Z,24.01
2018-03-15T09:12:02.788Z,24.22
2018-03-15T09:14:31.571Z,24.46
2018-03-15T09:17:00.195Z,24.57
2018-03-15T09:19:29.520Z,23.49
2018-03-15T09:21:58.117Z,23.72
2018-03-15T09:24:26.674Z,24.02
2018-03-15T09:26:55.989Z,23.71
2018-03-15T09:29:25.462Z,24.40
2018-03-15T09:31:54.796Z,24.30
2018-03-15T09:34:23.417Z,23.06
2018-03-15T09:36:52.035Z,23.55
2018-03-15T09:39:21.377Z,24.38
2018-03-15T09:41:50.309Z,23.71
2018-03-15T09:44:19.727Z,24.68
2018-03-15T09:46:48.312Z,24.98
2018-03-15T09:49:17.660Z,25.19
2018-03-15T09:51:46.480Z,25.05
2018-03-15T09:54:15.829Z,25.68
2018-03-15T09:56:44.414Z,26.14
2018-03-15T09:59:13.451Z,25.79
2018-03-15T10:01:42.380Z,25.49
2018-03-15T10:04:11.767Z,24.87
2018-03-15T10:06:40.638Z,25.33
2018-03-15T10:09:09.226Z,25.57
2018-03-15T10:11:38.577Z,25.74
2018-03-15T10:14:07.220Z,26.57
2018-03-15T10:16:35.819Z,26.08
2018-03-15T10:19:04.417Z,25.83
2018-03-15T10:21:33.148Z,26.73
2018-03-15T10:24:02.487Z,26.33
2018-03-15T10:26:31.212Z,25.71
2018-03-15T10:29:00.180Z,25.93
2018-03-15T10:31:28.896Z,25.31
2018-03-15T10:33:58.390Z,26.40
2018-03-15T10:36:27.134Z,25.75
2018-03-15T10:38:55.875Z,26.08
2018-03-15T10:41:25.383Z,26.22
2018-03-15T10:43:54.114Z,27.17
2018-03-15T10:46:22.693Z,26.56
2018-03-15T10:48:51.440Z,26.13
2018-03-15T10:51:20.284Z,26.59
2018-03-15T10:53:48.986Z,26.45
2018-03-15T10:56:18.482Z,26.05
2018-03-15T10:58:47.522Z,27.39
2018-03-15T11:01:28.056Z,27.31
2018-03-15T11:04:15.532Z,27.03
2018-03-15T11:07:04.633Z,26.63
2018-03-15T11:09:33.416Z,25.71
2018-03-15T11:12:01.995Z,26.02
2018-03-15T11:14:30.578Z,26.28
2018-03-15T11:16:59.565Z,26.64
2018-03-15T11:19:28.255Z,25.98
2018-03-15T11:21:56.857Z,27.26
2018-03-15T11:24:25.473Z,26.95
2018-03-15T11:26:54.056Z,27.67
2018-03-15T11:29:22.637Z,28.35
2018-03-15T11:31:51.472Z,28.24
2018-03-15T11:34:20.046Z,27.94
2018-03-15T11:36:48.637Z,26.74
2018-03-15T11:39:17.264Z,28.05
2018-03-15T11:41:45.852Z,26.51
2018-03-15T11:44:14.419Z,27.17
2018-03-15T11:46:43.817Z,25.97
2018-03-15T11:49:13.173Z,26.54
2018-03-15T11:51:41.781Z,26.77
2018-03-15T11:54:10.676Z,27.12
2018-03-15T11:56:40.182Z,26.80
2018-03-15T11:59:08.762Z,27.93
2018-03-15T12:01:38.256Z,28.21
2018-03-15T12:04:06.784Z,28.11
2018-03-15T12:06:35.372Z,27.74
2018-03-15T12:09:04.959Z,26.74
2018-03-15T12:11:34.336Z,27.20
2018-03-15T12:14:02.923Z,26.95
2018-03-15T12:16:31.819Z,26.72
2018-03-15T12:19:00.373Z,27.47
2018-03-15T12:21:28.932Z,26.40
2018-03-15T12:23:57.536Z,28.04
2018-03-15T12:26:26.075Z,28.60
2018-03-15T12:28:54.789Z,28.58
2018-03-15T12:31:24.296Z,27.52
2018-03-15T12:33:52.848Z,27.10
2018-03-15T12:36:21.512Z,28.52
2018-03-15T12:38:50.547Z,27.91
2018-03-15T12:41:19.909Z,27.96
2018-03-15T12:43:48.491Z,27.27
2018-03-15T12:46:17.256Z,27.35
2018-03-15T12:48:45.809Z,26.88
2018-03-15T12:51:15.125Z,26.55
2018-03-15T12:53:44.048Z,25.70
2018-03-15T12:56:12.636Z,26.84
2018-03-15T12:58:41.188Z,26.94
2018-03-15T13:01:10.245Z,27.36
2018-03-15T13:03:39.561Z,27.77
2018-03-15T13:06:08.876Z,26.43
2018-03-15T13:08:37.561Z,27.29
2018-03-15T13:11:06.108Z,26.55
2018-03-15T13:13:34.660Z,26.02
2018-03-15T13:16:03.445Z,27.82
2018-03-15T13:18:31.989Z,27.12
2018-03-15T13:21:00.544Z,26.27
2018-03-15T13:23:29.648Z,27.95
2018-03-15T13:25:58.966Z,28.75
2018-03-15T13:28:27.521Z,28.85
2018-03-15T13:30:56.903Z,27.78
2018-03-15T13:33:25.474Z,27.04
2018-03-15T13:35:54.015Z,27.81
2018-03-15T13:38:22.613Z,28.07
2018-03-15T13:40:51.157Z,27.62
2018-03-15T13:43:20.476Z,26.52
2018-03-15T13:45:49.181Z,28.16
2018-03-15T13:48:17.732Z,26.90
2018-03-15T13:50:47.053Z,27.62
2018-03-15T13:53:15.664Z,27.89
2018-03-15T13:55:44.213Z,27.00
2018-03-15T13:58:12.777Z,27.08
2018-03-15T14:00:42.146Z,26.20
2018-03-15T14:03:10.725Z,25.78
2018-03-15T14:05:39.276Z,25.86
2018-03-15T14:08:08.198Z,27.50
2018-03-15T14:10:36.752Z,28.11
2018-03-15T14:13:05.321Z,27.70
2018-03-15T14:15:33.944Z,27.18
2018-03-15T14:18:02.495Z,26.45
2018-03-15T14:20:31.226Z,25.60
2018-03-15T14:23:00.220Z,25.80
2018-03-15T14:25:28.904Z,26.06
2018-03-15T14:27:57.544Z,26.31
2018-03-15T14:30:26.277Z,25.37
2018-03-15T14:32:54.853Z,26.53
2018-03-15T14:35:23.392Z,25.35
2018-03-15T14:37:51.988Z,25.83
2018-03-15T14:40:20.711Z,26.13
2018-03-15T14:42:49.256Z,25.86
2018-03-15T14:45:17.902Z,25.70
2018-03-15T14:47:47.220Z,24.44
2018-03-15T14:50:16.533Z,24.27
2018-03-15T14:52:45.259Z,24.02
2018-03-15T14:55:13.801Z,23.53
2018-03-15T14:57:42.351Z,23.48
2018-03-15T15:00:10.956Z,23.78
2018-03-15T15:02:40.280Z,23.91
2018-03-15T15:05:08.832Z,23.88
2018-03-15T15:07:38.285Z,23.46
2018-03-15T15:10:06.828Z,24.06
2018-03-15T15:12:36.144Z,24.59
2018-03-15T15:15:04.888Z,23.50
2018-03-15T15:17:33.464Z,23.45
2018-03-15T15:20:02.020Z,23.55
2018-03-15T15:22:30.729Z,23.84
2018-03-15T15:25:00.633Z,23.55
2018-03-15T15:27:29.236Z,22.92
2018-03-15T15:29:57.828Z,23.21
2018-03-15T15:32:26.381Z,23.57
2018-03-15T15:34:54.928Z,21.76
2018-03-15T15:37:23.524Z,22.53
2018-03-15T15:39:52.073Z,22.45
2018-03-15T15:42:21.393Z,23.08
2018-03-15T15:44:50.024Z,22.84
2018-03-15T15:47:18.599Z,21.93
2018-03-15T15:49:47.298Z,21.79
2018-03-15T15:52:15.912Z,21.93
2018-03-15T15:54:45.375Z,22.35
2018-03-15T15:57:13.962Z,22.15
2018-03-15T15:59:42.945Z,22.21
2018-03-15T16:02:11.494Z,22.49
2018-03-15T16:04:40.045Z,22.30
2018-03-15T16:07:09.420Z,22.22
2018-03-15T16:09:37.964Z,22.51
2018-03-15T16:12:06.514Z,22.82
2018-03-15T16:14:36.028Z,22.29
2018-03-15T16:17:05.489Z,22.23
2018-03-15T16:19:34.088Z,21.67
2018-03-15T16:22:02.729Z,21.07
2018-03-15T16:24:31.348Z,20.82
2018-03-15T16:26:59.970Z,20.91
2018-03-15T16:29:29.640Z,20.99
2018-03-15T16:31:58.330Z,20.81
2018-03-15T16:34:26.867Z,20.55
2018-03-15T16:36:55.513Z,20.68
2018-03-15T16:39:24.838Z,20.69
2018-03-15T16:41:54.249Z,20.57
2018-03-15T16:44:23.182Z,20.25
2018-03-15T16:46:51.867Z,20.37
2018-03-15T16:49:20.453Z,19.56
2018-03-15T16:51:49.544Z,19.52
2018-03-15T16:54:18.093Z,19.93
2018-03-15T16:56:46.667Z,19.83
2018-03-15T16:59:15.350Z,19.38
2018-03-15T17:01:44.805Z,19.47
2018-03-15T17:04:13.588Z,19.69
2018-03-15T17:06:42.532Z,19.73
2018-03-15T17:09:11.991Z,19.58
2018-03-15T17:11:40.664Z,19.56
2018-03-15T17:14:09.736Z,19.84
2018-03-15T17:16:38.457Z,19.23
2018-03-15T17:19:07.239Z,19.06
2018-03-15T17:21:35.940Z,18.91
2018-03-15T17:24:04.707Z,18.87
2018-03-15T17:26:33.405Z,18.84
2018-03-15T17:29:02.289Z,19.12
2018-03-15T17:31:30.976Z,19.25
2018-03-15T17:33:59.661Z,19.00
2018-03-15T17:36:28.395Z,18.28
2018-03-15T17:38:58.715Z,18.24
2018-03-15T17:41:28.181Z,17.80
2018-03-15T17:43:56.971Z,18.01
2018-03-15T17:46:25.545Z,18.31
2018-03-15T17:48:54.343Z,19.23
2018-03-15T17:51:24.109Z,18.84
2018-03-15T17:53:52.836Z,19.06
2018-03-15T17:56:21.518Z,18.86
2018-03-15T17:58:50.410Z,19.03
2018-03-15T18:01:19.099Z,19.09
2018-03-15T18:03:47.887Z,19.17
2018-03-15T18:06:16.864Z,19.28
2018-03-15T18:08:45.564Z,19.29
2018-03-15T18:11:14.297Z,19.21
2018-03-15T18:13:43.757Z,19.72
2018-03-15T18:16:13.326Z,19.75
2018-03-15T18:18:42.762Z,19.74
2018-03-15T18:21:11.795Z,19.64
2018-03-15T18:23:40.444Z,20.21
2018-03-15T18:26:09.126Z,19.94
2018-03-15T18:28:37.923Z,19.62
2018-03-15T18:31:06.490Z,19.65
2018-03-15T18:33:35.137Z,19.17
2018-03-15T18:36:03.772Z,19.34
2018-03-15T18:38:32.456Z,18.75
2018-03-15T18:41:01.142Z,18.92
2018-03-15T18:43:29.910Z,19.74
2018-03-15T18:45:58.612Z,19.58
2018-03-15T18:48:27.245Z,19.64
2018-03-15T18:50:56.714Z,19.35
2018-03-15T18:53:25.277Z,19.23
2018-03-15T18:55:53.969Z,19.65
2018-03-15T18:58:22.862Z,20.00
2018-03-15T19:00:51.536Z,19.94
2018-03-15T19:03:20.236Z,19.84
2018-03-15T19:05:49.092Z,19.90
2018-03-15T19:08:17.815Z,19.83
2018-03-15T19:10:46.455Z,19.91
2018-03-15T19:13:15.186Z,19.12
2018-03-15T19:15:43.873Z,19.47
2018-03-15T19:18:12.559Z,19.73
2018-03-15T19:20:41.156Z,19.10
2018-03-15T19:23:09.869Z,18.83
2018-03-15T19:25:39.329Z,19.87
2018-03-15T19:28:08.322Z,20.02
2018-03-15T19:30:37.007Z,20.31
2018-03-15T19:33:05.792Z,20.16
2018-03-15T19:35:34.891Z,20.08
2018-03-15T19:38:03.580Z,19.78
2018-03-15T19:40:32.158Z,19.45
2018-03-15T19:43:00.889Z,19.41
2018-03-15T19:45:30.352Z,19.16
2018-03-15T19:47:58.929Z,18.54
2018-03-15T19:50:28.347Z,18.74
2018-03-15T19:52:57.654Z,18.43
2018-03-15T19:55:26.335Z,18.55
2018-03-15T19:57:55.796Z,18.43
2018-03-15T20:00:24.418Z,18.32
2018-03-15T20:02:53.872Z,18.08
2018-03-15T20:05:22.569Z,18.40
2018-03-15T20:07:51.368Z,18.72
2018-03-15T20:10:20.766Z,18.70
2018-03-15T20:12:49.802Z,18.79
2018-03-15T20:15:19.255Z,18.49
2018-03-15T20:17:47.940Z,18.11
2018-03-15T20:20:16.932Z,17.88
2018-03-15T20:22:51.215Z,17.93
2018-03-15T20:25:19.997Z,17.75
2018-03-15T20:27:55.152Z,17.71
2018-03-15T20:30:24.951Z,17.81
2018-03-15T20:32:59.171Z,18.07
2018-03-15T20:35:27.869Z,17.93
2018-03-15T20:37:56.434Z,18.02
2018-03-15T20:40:30.657Z,18.08
2018-03-15T20:42:59.441Z,17.75
2018-03-15T20:45:33.915Z,17.70
2018-03-15T20:48:08.926Z,17.91
2018-03-15T20:50:37.993Z,16.89
2018-03-15T20:53:07.475Z,17.24
2018-03-15T20:55:36.156Z,16.98
2018-03-15T20:58:05.040Z,16.44
2018-03-15T21:00:33.725Z,16.23
2018-03-15T21:03:02.392Z,16.58
2018-03-15T21:05:31.384Z,16.69
2018-03-15T21:08:00.089Z,16.90
2018-03-15T21:10:28.676Z,15.91
2018-03-15T21:12:57.575Z,16.07
2018-03-15T21:15:27.068Z,15.94
2018-03-15T21:17:56.493Z,16.16
2018-03-15T21:20:25.942Z,16.20
2018-03-15T21:22:54.630Z,16.37
2018-03-15T21:25:23.316Z,16.38
2018-03-15T21:27:52.191Z,16.36
2018-03-15T21:30:20.834Z,16.16
2018-03-15T21:32:50.298Z,16.54
2018-03-15T21:35:19.119Z,16.51
2018-03-15T21:37:48.587Z,16.79
2018-03-15T21:40:17.273Z,16.86
2018-03-15T21:42:46.202Z,16.89
2018-03-15T21:45:15.664Z,16.79
2018-03-15T21:47:44.313Z,17.06
2018-03-15T21:50:13.036Z,17.06
2018-03-15T21:52:41.674Z,17.13
2018-03-15T21:55:10.410Z,17.15
2018-03-15T21:57:39.400Z,17.09
2018-03-15T22:00:08.086Z,17.10
2018-03-15T22:02:36.673Z,16.56
2018-03-15T22:05:05.640Z,16.95
2018-03-15T22:07:34.351Z,17.01
2018-03-15T22:10:03.037Z,16.99
2018-03-15T22:12:31.967Z,16.66
2018-03-15T22:15:01.433Z,16.43
2018-03-15T22:17:30.017Z,16.54
2018-03-15T22:19:58.977Z,16.24
2018-03-15T22:22:27.617Z,16.37
2018-03-15T22:24:56.349Z,16.36
2018-03-15T22:27:25.143Z,16.39
2018-03-15T22:29:53.728Z,16.57
2018-03-15T22:32:22.309Z,16.39
2018-03-15T22:34:51.092Z,16.38
2018-03-15T22:37:19.685Z,16.41
2018-03-15T22:39:48.365Z,15.94
2018-03-15T22:42:17.358Z,16.02
2018-03-15T22:44:46.001Z,16.08
2018-03-15T22:47:14.700Z,16.00
2018-03-15T22:49:43.389Z,16.14
2018-03-15T22:52:12.880Z,16.04
2018-03-15T22:54:41.578Z,14.83
2018-03-15T22:57:10.363Z,13.81
2018-03-15T22:59:39.157Z,13.53
2018-03-15T23:02:07.720Z,13.28
2018-03-15T23:04:36.420Z,14.29
2018-03-15T23:07:05.104Z,14.75
2018-03-15T23:09:33.648Z,13.92
2018-03-15T23:12:02.623Z,13.72
2018-03-15T23:14:32.110Z,14.09
2018-03-15T23:17:00.780Z,14.15
2018-03-15T23:19:30.602Z,14.63
2018-03-15T23:22:00.063Z,15.01
2018-03-15T23:24:28.750Z,14.83
2018-03-15T23:26:57.580Z,14.69
2018-03-15T23:29:26.931Z,14.73
2018-03-15T23:31:55.566Z,14.72
2018-03-15T23:34:25.017Z,13.23
2018-03-15T23:36:53.698Z,13.96
2018-03-15T23:39:22.393Z,14.47
2018-03-15T23:41:51.280Z,14.26
2018-03-15T23:44:19.967Z,14.17
2018-03-15T23:46:48.598Z,14.34
2018-03-15T23:49:18.516Z,15.13
2018-03-15T23:51:47.977Z,14.90
2018-03-15T23:54:16.663Z,15.45
2018-03-15T23:56:45.495Z,15.20
2018-03-15T23:59:14.809Z,15.41
